Portada
METAR-TAF:

METAR-TAF

Aeropuertos :

Aeropuerto de Ibiza

Ibiza, España

latitud: 38-52N, longitud: 001-23E, altitud: 7 m

Observación

El informe se hizo hace 27 minutos, a las 08:30 UTC
Viento 6 kt del norte-noreste, variando entre norte y este-noreste
Temperatura 14°C
Humedad 77%
Presión 1026 hPa
Visibilidad 10 km o más
Escasas nubes a una altura de 2000 ft
Cielo nuboso a una altura de 2400 ft

METAR: LEIB 270830Z 03006KT 350V070 9999 FEW020 BKN024 14/10 Q1026 NOSIG

Hora: 09:57 (08:57 UTC)

Pronóstico

El informe se hizo hace 57 minutos, a las 08:00 UTC
Pronóstico válido del 27 a las 09 UTC al 28 a las 09 UTC
Viento 10 kt del este
Visibilidad 10 km o más
Nubes dispersas a una altura de 2100 ft

TAF: LEIB 270800Z 2709/2809 08010KT 9999 SCT021 TX17/2712Z TN10/2806Z

Observaciones y pronósticos meteorológicos de más de 4000 aeropuertos (mensajes METAR y TAF).

Los puntos amarillos y rojos representan las estaciones disponibles.

Ponga el ratón en el punto deseado para ver el nombre de la estación.

Haga clic para ver las observaciones y los pronósticos meteorológicos.

Para cambiar el mapa : haga clic en los botones verdes con una cruz de color negro para hacer un zoom, en el botón verde con un guión para alejar o en las flechas verdes para mapas adyacentes.


METAR-TAF: